createdAt,value
2023-01-26T00:00:09.216Z,8.17
2023-01-26T00:02:58.700Z,8.28
2023-01-26T00:05:49.470Z,8.22
2023-01-26T00:08:39.741Z,8.29
2023-01-26T00:11:30.643Z,8.28
2023-01-26T00:14:19.932Z,8.33
2023-01-26T00:17:09.144Z,8.30
2023-01-26T00:19:59.691Z,8.22
2023-01-26T00:22:50.299Z,8.21
2023-01-26T00:25:41.307Z,8.20
2023-01-26T00:28:30.810Z,8.16
2023-01-26T00:31:22.729Z,8.20
2023-01-26T00:34:11.913Z,8.17
2023-01-26T00:37:04.303Z,8.13
2023-01-26T00:39:54.843Z,8.13
2023-01-26T00:42:46.288Z,8.12
2023-01-26T00:45:36.718Z,8.09
2023-01-26T00:48:27.799Z,8.14
2023-01-26T00:51:17.048Z,8.11
2023-01-26T00:54:06.277Z,8.11
2023-01-26T00:56:57.548Z,8.08
2023-01-26T00:59:46.729Z,8.06
2023-01-26T01:02:36.024Z,8.02
2023-01-26T01:05:25.761Z,7.98
2023-01-26T01:08:15.282Z,8.01
2023-01-26T01:11:07.633Z,7.92
2023-01-26T01:13:58.315Z,8.03
2023-01-26T01:16:47.578Z,8.02
2023-01-26T01:19:36.855Z,8.02
2023-01-26T01:22:26.172Z,8.01
2023-01-26T01:25:15.660Z,7.97
2023-01-26T01:28:05.002Z,7.93
2023-01-26T01:30:55.606Z,7.93
2023-01-26T01:33:45.393Z,8.02
2023-01-26T01:36:34.804Z,8.03
2023-01-26T01:39:24.431Z,8.06
2023-01-26T01:42:13.671Z,8.03
2023-01-26T01:45:43.183Z,8.08
2023-01-26T01:48:44.292Z,8.08
2023-01-26T01:51:38.713Z,8.05
2023-01-26T01:54:33.672Z,8.08
2023-01-26T01:57:28.808Z,7.96
2023-01-26T02:00:22.538Z,7.94
2023-01-26T02:03:14.792Z,7.92
2023-01-26T02:06:10.515Z,7.93
2023-01-26T02:09:00.210Z,7.99
2023-01-26T02:11:49.512Z,8.06
2023-01-26T02:14:39.467Z,8.03
2023-01-26T02:17:28.761Z,7.89
2023-01-26T02:20:28.670Z,7.97
2023-01-26T02:23:32.456Z,8.05
2023-01-26T02:26:26.163Z,8.04
2023-01-26T02:29:15.722Z,8.12
2023-01-26T02:32:06.868Z,8.07
2023-01-26T02:34:58.585Z,8.01
2023-01-26T02:37:47.888Z,8.06
2023-01-26T02:40:44.758Z,8.10
2023-01-26T02:43:34.979Z,8.12
2023-01-26T02:46:26.295Z,8.11
2023-01-26T02:49:32.756Z,8.11
2023-01-26T02:52:26.520Z,8.04
2023-01-26T02:55:35.990Z,8.04
2023-01-26T02:58:25.291Z,7.99
2023-01-26T03:01:16.589Z,8.05
2023-01-26T03:04:09.807Z,7.98
2023-01-26T03:06:59.035Z,8.08
2023-01-26T03:09:48.354Z,8.09
2023-01-26T03:12:37.746Z,8.04
2023-01-26T03:15:43.060Z,8.05
2023-01-26T03:18:54.357Z,8.02
2023-01-26T03:22:03.285Z,8.06
2023-01-26T03:25:09.627Z,8.09
2023-01-26T03:27:59.181Z,8.11
2023-01-26T03:30:48.423Z,8.14
2023-01-26T03:33:39.800Z,8.08
2023-01-26T03:36:29.087Z,8.06
2023-01-26T03:39:32.521Z,8.16
2023-01-26T03:42:39.751Z,8.13
2023-01-26T03:45:46.124Z,8.15
2023-01-26T03:48:52.526Z,8.15
2023-01-26T03:52:00.628Z,8.07
2023-01-26T03:55:07.146Z,8.16
2023-01-26T03:57:56.420Z,8.17
2023-01-26T04:00:45.608Z,8.20
2023-01-26T04:03:52.038Z,8.22
2023-01-26T04:07:04.147Z,8.21
2023-01-26T04:09:54.360Z,8.13
2023-01-26T04:12:43.691Z,8.24
2023-01-26T04:16:08.623Z,8.25
2023-01-26T04:19:15.819Z,8.28
2023-01-26T04:22:06.573Z,8.27
2023-01-26T04:24:58.283Z,8.28
2023-01-26T04:27:47.949Z,8.30
2023-01-26T04:30:37.682Z,8.33
2023-01-26T04:33:27.144Z,8.31
2023-01-26T04:36:16.444Z,8.30
2023-01-26T04:39:11.342Z,8.25
2023-01-26T04:42:04.663Z,8.29
2023-01-26T04:44:54.092Z,8.31
2023-01-26T04:47:44.209Z,8.31
2023-01-26T04:50:34.514Z,8.30
2023-01-26T04:53:24.101Z,8.28
2023-01-26T04:56:23.857Z,8.23
2023-01-26T04:59:15.806Z,8.14
2023-01-26T05:02:05.996Z,8.06
2023-01-26T05:04:55.416Z,8.03
2023-01-26T05:07:44.700Z,7.91
2023-01-26T05:10:36.512Z,7.78
2023-01-26T05:13:47.322Z,7.75
2023-01-26T05:16:46.212Z,7.73
2023-01-26T05:19:49.106Z,7.69
2023-01-26T05:22:54.018Z,7.63
2023-01-26T05:25:45.994Z,7.62
2023-01-26T05:28:37.097Z,7.49
2023-01-26T05:31:28.116Z,7.56
2023-01-26T05:34:17.888Z,7.52
2023-01-26T05:37:07.256Z,7.48
2023-01-26T05:39:59.596Z,7.38
2023-01-26T05:42:49.213Z,7.42
2023-01-26T05:46:10.761Z,7.52
2023-01-26T05:49:06.093Z,7.55
2023-01-26T05:51:55.722Z,7.57
2023-01-26T05:54:46.237Z,7.59
2023-01-26T05:57:36.457Z,7.71
2023-01-26T06:00:28.210Z,7.70
2023-01-26T06:03:25.211Z,7.80
2023-01-26T06:06:15.865Z,7.86
2023-01-26T06:09:12.603Z,7.83
2023-01-26T06:12:21.075Z,7.88
2023-01-26T06:15:36.851Z,7.96
2023-01-26T06:18:26.283Z,7.93
2023-01-26T06:21:19.030Z,7.94
2023-01-26T06:24:09.274Z,8.01
2023-01-26T06:26:58.673Z,8.03
2023-01-26T06:29:48.682Z,8.01
2023-01-26T06:32:38.710Z,8.05
2023-01-26T06:35:29.210Z,8.08
2023-01-26T06:38:23.378Z,8.06
2023-01-26T06:41:12.815Z,8.07
2023-01-26T06:44:02.070Z,8.09
2023-01-26T06:46:51.806Z,8.06
2023-01-26T06:49:41.390Z,8.09
2023-01-26T06:52:33.991Z,8.07
2023-01-26T06:55:41.996Z,8.09
2023-01-26T06:58:50.760Z,8.11
2023-01-26T07:01:57.436Z,8.05
2023-01-26T07:04:47.205Z,8.00
2023-01-26T07:07:36.639Z,7.97
2023-01-26T07:10:25.827Z,7.99
2023-01-26T07:13:16.439Z,8.01
2023-01-26T07:16:08.251Z,7.88
2023-01-26T07:18:57.665Z,7.85
2023-01-26T07:21:46.900Z,7.85
2023-01-26T07:24:36.161Z,7.74
2023-01-26T07:27:25.463Z,7.77
2023-01-26T07:30:17.445Z,7.80
2023-01-26T07:33:06.600Z,7.76
2023-01-26T07:35:56.228Z,7.66
2023-01-26T07:38:45.510Z,7.67
2023-01-26T07:41:34.727Z,7.67
2023-01-26T07:44:30.499Z,7.49
2023-01-26T07:47:21.195Z,7.46
2023-01-26T07:50:13.241Z,7.49
2023-01-26T07:53:02.711Z,7.40
2023-01-26T07:55:51.844Z,7.46
2023-01-26T07:58:41.430Z,7.41
2023-01-26T08:01:30.638Z,7.34
2023-01-26T08:04:21.317Z,7.38
2023-01-26T08:07:10.560Z,7.34
2023-01-26T08:10:00.433Z,7.39
2023-01-26T08:12:49.769Z,7.44
2023-01-26T08:15:39.098Z,7.45
2023-01-26T08:18:28.484Z,7.33
2023-01-26T08:21:20.649Z,7.40
2023-01-26T08:24:12.692Z,7.40
2023-01-26T08:27:02.036Z,7.44
2023-01-26T08:29:51.646Z,7.40
2023-01-26T08:32:41.342Z,7.10
2023-01-26T08:35:30.638Z,7.30
2023-01-26T08:38:21.594Z,7.37
2023-01-26T08:41:11.785Z,7.44
2023-01-26T08:44:01.119Z,7.14
2023-01-26T08:46:50.368Z,7.18
2023-01-26T08:49:39.682Z,7.44
2023-01-26T08:52:30.615Z,7.39
2023-01-26T08:55:21.673Z,7.36
2023-01-26T08:58:10.967Z,7.47
2023-01-26T09:01:00.397Z,7.50
2023-01-26T09:03:51.422Z,7.35
2023-01-26T09:06:40.882Z,7.40
2023-01-26T09:09:30.212Z,7.50
2023-01-26T09:12:21.316Z,7.55
2023-01-26T09:15:11.864Z,7.61
2023-01-26T09:18:01.345Z,7.51
2023-01-26T09:20:51.522Z,7.64
2023-01-26T09:23:40.996Z,7.68
2023-01-26T09:26:31.555Z,7.75
2023-01-26T09:29:22.434Z,7.75
2023-01-26T09:32:11.759Z,7.89
2023-01-26T09:35:01.785Z,7.91
2023-01-26T09:37:51.136Z,7.97
2023-01-26T09:40:53.887Z,7.97
2023-01-26T09:43:48.303Z,8.05
2023-01-26T09:46:56.974Z,8.07
2023-01-26T09:49:51.825Z,8.21
2023-01-26T09:52:51.547Z,8.27
2023-01-26T09:55:42.926Z,8.41
2023-01-26T09:58:38.867Z,8.44
2023-01-26T10:01:37.593Z,8.48
2023-01-26T10:04:37.139Z,8.45
2023-01-26T10:07:26.593Z,8.65
2023-01-26T10:10:25.635Z,8.67
2023-01-26T10:13:18.068Z,8.81
2023-01-26T10:16:11.593Z,8.89
2023-01-26T10:19:05.502Z,8.98
2023-01-26T10:22:01.080Z,8.97
2023-01-26T10:24:53.277Z,9.10
2023-01-26T10:27:43.167Z,9.21
2023-01-26T10:30:32.478Z,9.20
2023-01-26T10:33:29.021Z,9.09
2023-01-26T10:36:18.612Z,9.26
2023-01-26T10:39:11.180Z,9.13
2023-01-26T10:42:02.499Z,9.23
2023-01-26T10:44:52.743Z,9.33
2023-01-26T10:47:42.055Z,9.34
2023-01-26T10:50:32.243Z,9.39
2023-01-26T10:53:28.390Z,9.48
2023-01-26T10:56:20.655Z,9.51
2023-01-26T10:59:10.800Z,9.50
2023-01-26T11:02:04.457Z,9.55
2023-01-26T11:05:23.661Z,9.53
2023-01-26T11:08:34.659Z,9.57
2023-01-26T11:11:28.576Z,9.58
2023-01-26T11:14:20.285Z,9.66
2023-01-26T11:17:20.893Z,9.84
2023-01-26T11:20:52.095Z,9.95
2023-01-26T11:24:05.135Z,10.21
2023-01-26T11:27:24.511Z,10.25
2023-01-26T11:30:35.123Z,10.29
2023-01-26T11:33:35.552Z,10.14
2023-01-26T11:36:39.361Z,10.18
2023-01-26T11:39:36.892Z,10.12
2023-01-26T11:42:39.941Z,9.96
2023-01-26T11:45:34.702Z,10.03
2023-01-26T11:48:35.340Z,10.07
2023-01-26T11:51:45.335Z,9.93
2023-01-26T11:54:55.242Z,9.89
2023-01-26T11:58:03.127Z,9.78
2023-01-26T12:00:57.713Z,9.77
2023-01-26T12:03:49.903Z,9.74
2023-01-26T12:06:43.901Z,9.89
2023-01-26T12:09:42.326Z,9.92
2023-01-26T12:12:38.762Z,9.88
2023-01-26T12:15:35.704Z,9.95
2023-01-26T12:18:46.963Z,10.04
2023-01-26T12:21:46.343Z,10.09
2023-01-26T12:28:00.199Z,10.31
2023-01-26T12:31:02.397Z,10.40
2023-01-26T12:33:55.851Z,10.42
2023-01-26T12:36:54.423Z,10.53
2023-01-26T12:39:48.750Z,10.59
2023-01-26T12:42:46.419Z,10.70
2023-01-26T12:45:40.533Z,10.67
2023-01-26T12:48:41.399Z,10.71
2023-01-26T12:51:35.310Z,10.82
2023-01-26T12:54:35.721Z,10.86
2023-01-26T12:57:31.886Z,10.82
2023-01-26T13:00:25.297Z,10.86
2023-01-26T13:03:22.578Z,10.87
2023-01-26T13:06:26.121Z,11.07
2023-01-26T13:09:24.868Z,11.53
2023-01-26T13:12:48.277Z,12.23
2023-01-26T13:15:37.515Z,12.71
2023-01-26T13:18:50.649Z,12.94
2023-01-26T13:21:46.006Z,13.16
2023-01-26T13:24:47.245Z,13.50
2023-01-26T13:27:48.215Z,13.62
2023-01-26T13:30:47.446Z,13.65
2023-01-26T13:33:36.671Z,13.79
2023-01-26T13:36:26.223Z,13.92
2023-01-26T13:39:30.283Z,14.15
2023-01-26T13:42:28.997Z,14.28
2023-01-26T13:45:35.131Z,14.45
2023-01-26T13:48:49.792Z,14.32
2023-01-26T13:51:44.315Z,14.26
2023-01-26T13:54:34.151Z,13.86
2023-01-26T13:57:25.899Z,13.46
2023-01-26T14:00:17.155Z,13.02
2023-01-26T14:03:19.420Z,12.55
2023-01-26T14:06:13.220Z,12.33
2023-01-26T14:09:04.183Z,12.08
2023-01-26T14:12:01.199Z,11.99
2023-01-26T14:14:52.854Z,11.95
2023-01-26T14:17:51.891Z,12.06
2023-01-26T14:20:43.549Z,12.15
2023-01-26T14:23:37.194Z,12.13
2023-01-26T14:26:33.163Z,12.19
2023-01-26T14:29:25.446Z,12.23
2023-01-26T14:32:18.317Z,12.15
2023-01-26T14:35:23.515Z,12.02
2023-01-26T14:38:20.031Z,11.75
2023-01-26T14:41:17.397Z,11.94
2023-01-26T14:44:07.636Z,11.91
2023-01-26T14:47:03.270Z,11.95
2023-01-26T14:49:59.839Z,12.04
2023-01-26T14:52:49.438Z,12.10
2023-01-26T14:55:40.201Z,12.07
2023-01-26T14:58:33.466Z,12.15
2023-01-26T15:01:25.234Z,12.28
2023-01-26T15:04:26.122Z,12.06
2023-01-26T15:07:39.004Z,12.03
2023-01-26T15:10:39.006Z,11.85
2023-01-26T15:13:32.975Z,11.63
2023-01-26T15:16:24.378Z,11.63
2023-01-26T15:19:24.709Z,11.52
2023-01-26T15:22:25.715Z,11.47
2023-01-26T15:25:21.711Z,11.44
2023-01-26T15:28:19.902Z,11.41
2023-01-26T15:31:21.672Z,11.13
2023-01-26T15:34:32.013Z,11.22
2023-01-26T15:37:32.207Z,11.10
2023-01-26T15:40:21.453Z,11.12
2023-01-26T15:43:15.093Z,10.90
2023-01-26T15:46:04.910Z,10.95
2023-01-26T15:48:56.031Z,10.85
2023-01-26T15:51:45.235Z,10.77
2023-01-26T15:54:34.517Z,10.71
2023-01-26T15:57:23.965Z,10.53
2023-01-26T16:00:15.695Z,10.48
2023-01-26T16:03:13.949Z,10.35
2023-01-26T16:06:04.767Z,10.35
2023-01-26T16:08:54.911Z,10.19
2023-01-26T16:11:49.592Z,10.25
2023-01-26T16:14:38.804Z,10.27
2023-01-26T16:17:28.361Z,10.19
2023-01-26T16:20:18.358Z,10.05
2023-01-26T16:23:19.434Z,10.09
2023-01-26T16:26:12.064Z,10.07
2023-01-26T16:29:01.441Z,10.04
2023-01-26T16:31:50.828Z,9.96
2023-01-26T16:34:40.055Z,9.94
2023-01-26T16:37:29.374Z,9.93
2023-01-26T16:40:20.781Z,9.81
2023-01-26T16:43:19.648Z,9.82
2023-01-26T16:46:09.645Z,9.79
2023-01-26T16:48:59.351Z,9.70
2023-01-26T16:51:49.020Z,9.63
2023-01-26T16:54:38.496Z,9.52
2023-01-26T16:57:29.598Z,9.50
2023-01-26T17:00:21.338Z,9.57
2023-01-26T17:03:13.206Z,9.62
2023-01-26T17:06:02.730Z,9.49
2023-01-26T17:08:58.203Z,9.67
2023-01-26T17:11:47.461Z,9.71
2023-01-26T17:14:38.365Z,9.67
2023-01-26T17:17:27.597Z,9.65
2023-01-26T17:20:19.662Z,9.59
2023-01-26T17:23:09.950Z,9.71
2023-01-26T17:26:00.071Z,9.72
2023-01-26T17:28:51.671Z,9.71
2023-01-26T17:31:42.702Z,9.78
2023-01-26T17:34:32.279Z,9.82
2023-01-26T17:37:22.497Z,9.82
2023-01-26T17:40:14.090Z,9.78
2023-01-26T17:43:03.443Z,9.83
2023-01-26T17:45:55.920Z,9.64
2023-01-26T17:48:47.748Z,9.67
2023-01-26T17:51:40.188Z,9.69
2023-01-26T17:54:29.563Z,9.78
2023-01-26T17:57:18.811Z,9.78
2023-01-26T18:00:12.107Z,9.82
2023-01-26T18:03:01.853Z,9.81
2023-01-26T18:05:57.469Z,9.81
2023-01-26T18:08:46.987Z,9.82
2023-01-26T18:11:44.522Z,9.74
2023-01-26T18:14:33.885Z,9.71
2023-01-26T18:17:23.287Z,9.74
2023-01-26T18:20:15.161Z,9.73
2023-01-26T18:23:05.898Z,9.74
2023-01-26T18:25:55.192Z,9.77
2023-01-26T18:28:45.474Z,9.79
2023-01-26T18:31:36.999Z,9.76
2023-01-26T18:34:26.521Z,9.71
2023-01-26T18:37:16.178Z,9.76
2023-01-26T18:40:08.435Z,9.69
2023-01-26T18:42:58.585Z,9.71
2023-01-26T18:45:47.991Z,9.62
2023-01-26T18:48:37.817Z,9.65
2023-01-26T18:51:27.583Z,9.53
2023-01-26T18:54:20.188Z,9.46
2023-01-26T18:57:10.868Z,9.49
2023-01-26T19:00:00.121Z,9.71
2023-01-26T19:02:49.408Z,9.70
2023-01-26T19:05:38.710Z,9.68
2023-01-26T19:08:27.990Z,9.66
2023-01-26T19:11:17.204Z,9.65
2023-01-26T19:14:09.420Z,9.65
2023-01-26T19:16:58.819Z,9.65
2023-01-26T19:19:48.238Z,9.61
2023-01-26T19:22:37.468Z,9.63
2023-01-26T19:25:27.788Z,9.67
2023-01-26T19:28:17.445Z,9.70
2023-01-26T19:31:09.524Z,9.69
2023-01-26T19:34:01.044Z,9.52
2023-01-26T19:36:50.885Z,9.60
2023-01-26T19:39:40.056Z,9.63
2023-01-26T19:42:29.532Z,9.53
2023-01-26T19:45:18.737Z,9.57
2023-01-26T19:48:09.509Z,9.47
2023-01-26T19:51:02.900Z,9.49
2023-01-26T19:53:55.521Z,9.53
2023-01-26T19:56:44.760Z,9.47
2023-01-26T19:59:34.223Z,9.42
2023-01-26T20:02:23.452Z,9.41
2023-01-26T20:05:14.287Z,9.28
2023-01-26T20:08:03.775Z,9.39
2023-01-26T20:10:53.194Z,9.44
2023-01-26T20:13:42.623Z,9.35
2023-01-26T20:16:32.121Z,9.40
2023-01-26T20:19:21.508Z,9.42
2023-01-26T20:22:12.356Z,9.42
2023-01-26T20:25:01.950Z,9.39
2023-01-26T20:27:51.275Z,9.30
2023-01-26T20:30:41.279Z,9.33
2023-01-26T20:33:30.648Z,9.32
2023-01-26T20:36:22.834Z,9.29
2023-01-26T20:39:24.093Z,9.28
2023-01-26T20:42:16.658Z,9.28
2023-01-26T20:45:06.506Z,9.18
2023-01-26T20:47:55.805Z,9.12
2023-01-26T20:50:45.084Z,9.23
2023-01-26T20:53:34.246Z,9.25
2023-01-26T20:56:25.618Z,9.19
2023-01-26T20:59:14.970Z,9.21
2023-01-26T21:02:04.353Z,9.18
2023-01-26T21:04:54.339Z,9.20
2023-01-26T21:07:43.828Z,9.15
2023-01-26T21:10:33.151Z,9.17
2023-01-26T21:13:23.959Z,9.18
2023-01-26T21:16:16.674Z,9.21
2023-01-26T21:19:05.916Z,9.23
2023-01-26T21:21:55.083Z,9.14
2023-01-26T21:24:44.257Z,9.19
2023-01-26T21:27:33.521Z,9.19
2023-01-26T21:30:24.105Z,9.07
2023-01-26T21:33:13.819Z,9.11
2023-01-26T21:36:05.703Z,9.14
2023-01-26T21:38:58.341Z,9.08
2023-01-26T21:42:00.797Z,9.18
2023-01-26T21:45:06.974Z,8.96
2023-01-26T21:48:14.876Z,8.97
2023-01-26T21:51:22.188Z,9.06
2023-01-26T21:54:11.912Z,9.14
2023-01-26T21:57:02.221Z,9.14
2023-01-26T21:59:50.578Z,9.14
2023-01-26T22:02:39.818Z,9.15
2023-01-26T22:05:30.439Z,9.04
2023-01-26T22:08:19.616Z,9.13
2023-01-26T22:11:09.007Z,9.08
2023-01-26T22:13:58.653Z,9.09
2023-01-26T22:16:49.663Z,9.07
2023-01-26T22:19:38.990Z,9.06
2023-01-26T22:22:29.880Z,9.02
2023-01-26T22:25:19.183Z,9.01
2023-01-26T22:28:09.447Z,8.97
2023-01-26T22:31:03.166Z,8.92
2023-01-26T22:33:52.646Z,8.86
2023-01-26T22:36:41.869Z,8.86
2023-01-26T22:39:32.473Z,8.93
2023-01-26T22:42:23.371Z,8.93
2023-01-26T22:45:13.994Z,8.82
2023-01-26T22:48:03.275Z,8.92
2023-01-26T22:50:52.487Z,8.91
2023-01-26T22:53:42.082Z,8.82
2023-01-26T22:56:32.789Z,8.37
2023-01-26T22:59:22.028Z,8.82
2023-01-26T23:02:11.413Z,8.81
2023-01-26T23:05:01.039Z,8.80
2023-01-26T23:07:50.622Z,8.78
2023-01-26T23:10:40.140Z,8.55
2023-01-26T23:13:31.233Z,8.47
2023-01-26T23:16:21.394Z,8.54
2023-01-26T23:19:10.789Z,8.56
2023-01-26T23:22:01.343Z,8.52
2023-01-26T23:25:11.035Z,8.50
2023-01-26T23:28:04.370Z,8.36
2023-01-26T23:30:56.895Z,8.32
2023-01-26T23:33:46.630Z,8.21
2023-01-26T23:36:35.893Z,8.07
2023-01-26T23:39:25.057Z,8.08
2023-01-26T23:42:15.825Z,7.99
2023-01-26T23:45:05.861Z,7.95
2023-01-26T23:47:56.590Z,7.83
2023-01-26T23:50:46.092Z,7.80
2023-01-26T23:53:35.946Z,7.70
2023-01-26T23:56:25.148Z,7.72
2023-01-26T23:59:14.527Z,7.61
